createdAt,value
2023-12-23T00:02:25.269Z,10.00
2023-12-23T00:04:51.843Z,10.00
2023-12-23T00:07:18.405Z,10.10
2023-12-23T00:09:44.951Z,10.10
2023-12-23T00:12:11.571Z,10.10
2023-12-23T00:14:38.147Z,10.10
2023-12-23T00:17:04.826Z,10.10
2023-12-23T00:19:31.605Z,10.10
2023-12-23T00:21:58.183Z,10.10
2023-12-23T00:24:24.717Z,10.10
2023-12-23T00:26:51.233Z,10.00
2023-12-23T00:29:17.776Z,10.10
2023-12-23T00:31:44.314Z,10.10
2023-12-23T00:34:10.849Z,10.10
2023-12-23T00:36:40.260Z,10.20
2023-12-23T00:39:06.844Z,10.10
2023-12-23T00:41:33.414Z,10.10
2023-12-23T00:43:59.982Z,10.10
2023-12-23T00:46:26.528Z,10.10
2023-12-23T00:48:53.149Z,10.00
2023-12-23T00:51:19.732Z,10.00
2023-12-23T00:53:48.995Z,10.00
2023-12-23T00:56:15.953Z,10.10
2023-12-23T00:58:42.617Z,10.10
2023-12-23T01:01:09.241Z,10.10
2023-12-23T01:03:35.842Z,10.00
2023-12-23T01:06:02.407Z,10.00
2023-12-23T01:08:28.968Z,10.10
2023-12-23T01:10:55.538Z,10.10
2023-12-23T01:13:22.102Z,10.10
2023-12-23T01:15:52.343Z,10.10
2023-12-23T01:18:18.943Z,10.10
2023-12-23T01:20:45.542Z,10.10
2023-12-23T01:23:12.114Z,10.10
2023-12-23T01:25:38.662Z,10.10
2023-12-23T01:28:05.215Z,10.20
2023-12-23T01:30:31.805Z,10.10
2023-12-23T01:32:58.438Z,10.00
2023-12-23T01:35:25.035Z,10.00
2023-12-23T01:37:52.018Z,10.10
2023-12-23T01:40:18.656Z,10.00
2023-12-23T01:42:45.176Z,10.00
2023-12-23T01:45:11.688Z,10.00
2023-12-23T01:47:38.250Z,10.10
2023-12-23T01:50:04.794Z,10.00
2023-12-23T01:52:31.371Z,10.10
2023-12-23T01:54:57.876Z,10.10
2023-12-23T01:57:24.410Z,10.10
2023-12-23T01:59:50.915Z,10.10
2023-12-23T02:02:17.506Z,10.10
2023-12-23T02:04:44.165Z,10.20
2023-12-23T02:07:10.737Z,10.10
2023-12-23T02:09:37.268Z,10.00
2023-12-23T02:12:03.767Z,10.10
2023-12-23T02:14:30.274Z,10.00
2023-12-23T02:16:56.812Z,10.00
2023-12-23T02:19:23.330Z,10.00
2023-12-23T02:21:49.849Z,10.00
2023-12-23T02:24:16.358Z,10.10
2023-12-23T02:26:42.862Z,10.10
2023-12-23T02:29:09.497Z,10.00
2023-12-23T02:31:36.057Z,10.00
2023-12-23T02:34:02.616Z,10.00
2023-12-23T02:36:29.180Z,10.00
2023-12-23T02:38:55.725Z,10.00
2023-12-23T02:41:22.287Z,10.00
2023-12-23T02:43:48.859Z,10.00
2023-12-23T02:46:15.440Z,10.00
2023-12-23T02:48:42.054Z,10.00
2023-12-23T02:51:08.624Z,10.00
2023-12-23T02:53:35.158Z,10.00
2023-12-23T02:56:01.789Z,10.00
2023-12-23T02:58:28.396Z,10.00
2023-12-23T03:00:54.945Z,9.90
2023-12-23T03:03:21.546Z,10.00
2023-12-23T03:05:48.094Z,10.00
2023-12-23T03:08:14.793Z,10.00
2023-12-23T03:10:41.361Z,10.00
2023-12-23T03:13:07.888Z,10.00
2023-12-23T03:15:34.401Z,10.00
2023-12-23T03:18:01.079Z,10.10
2023-12-23T03:20:27.723Z,10.10
2023-12-23T03:22:54.539Z,10.00
2023-12-23T03:25:21.212Z,10.00
2023-12-23T03:27:47.730Z,10.00
2023-12-23T03:30:14.296Z,10.10
2023-12-23T03:32:40.900Z,10.10
2023-12-23T03:35:07.440Z,10.10
2023-12-23T03:37:33.969Z,10.10
2023-12-23T03:40:00.484Z,10.10
2023-12-23T03:42:26.984Z,10.00
2023-12-23T03:44:53.485Z,10.10
2023-12-23T03:47:20.003Z,10.10
2023-12-23T03:49:46.595Z,10.00
2023-12-23T03:52:13.105Z,9.90
2023-12-23T03:54:39.614Z,10.00
2023-12-23T03:57:06.157Z,10.00
2023-12-23T03:59:32.723Z,10.00
2023-12-23T04:01:59.331Z,10.10
2023-12-23T04:04:25.865Z,10.10
2023-12-23T04:06:52.473Z,10.10
2023-12-23T04:09:19.127Z,10.10
2023-12-23T04:11:45.656Z,10.10
2023-12-23T04:14:12.203Z,10.10
2023-12-23T04:16:38.764Z,10.10
2023-12-23T04:19:05.388Z,10.20
2023-12-23T04:21:31.971Z,10.20
2023-12-23T04:23:58.484Z,10.20
2023-12-23T04:26:25.028Z,10.10
2023-12-23T04:28:51.601Z,10.20
2023-12-23T04:31:18.336Z,10.20
2023-12-23T04:33:45.066Z,10.20
2023-12-23T04:36:11.639Z,10.20
2023-12-23T04:38:38.137Z,10.20
2023-12-23T04:41:04.679Z,10.20
2023-12-23T04:43:31.199Z,10.20
2023-12-23T04:45:57.732Z,10.30
2023-12-23T04:48:24.295Z,10.30
2023-12-23T04:50:50.813Z,10.30
2023-12-23T04:53:17.364Z,10.30
2023-12-23T04:55:43.982Z,10.30
2023-12-23T04:58:10.515Z,10.30
2023-12-23T05:00:37.052Z,10.30
2023-12-23T05:03:03.637Z,10.30
2023-12-23T05:05:30.401Z,10.30
2023-12-23T05:07:57.079Z,10.30
2023-12-23T05:10:23.594Z,10.30
2023-12-23T05:12:50.334Z,10.30
2023-12-23T05:15:16.984Z,10.30
2023-12-23T05:17:43.792Z,10.30
2023-12-23T05:20:10.517Z,10.30
2023-12-23T05:22:37.099Z,10.30
2023-12-23T05:25:03.617Z,10.30
2023-12-23T05:27:30.147Z,10.30
2023-12-23T05:29:56.663Z,10.30
2023-12-23T05:32:23.308Z,10.30
2023-12-23T05:34:49.949Z,10.30
2023-12-23T05:37:16.481Z,10.30
2023-12-23T05:39:43.003Z,10.30
2023-12-23T05:42:09.535Z,10.40
2023-12-23T05:44:36.071Z,10.30
2023-12-23T05:47:02.705Z,10.30
2023-12-23T05:49:29.229Z,10.40
2023-12-23T05:51:55.749Z,10.40
2023-12-23T05:54:22.248Z,10.40
2023-12-23T05:56:48.785Z,10.30
2023-12-23T05:59:15.410Z,10.30
2023-12-23T06:01:41.986Z,10.40
2023-12-23T06:04:08.534Z,10.40
2023-12-23T06:06:35.099Z,10.40
2023-12-23T06:09:01.617Z,10.40
2023-12-23T06:11:28.175Z,10.40
2023-12-23T06:13:54.732Z,10.40
2023-12-23T06:16:21.272Z,10.40
2023-12-23T06:18:47.908Z,10.40
2023-12-23T06:21:14.501Z,10.40
2023-12-23T06:23:41.004Z,10.30
2023-12-23T06:26:07.578Z,10.30
2023-12-23T06:28:34.091Z,10.40
2023-12-23T06:31:00.671Z,10.40
2023-12-23T06:33:27.260Z,10.30
2023-12-23T06:35:53.785Z,10.30
2023-12-23T06:38:20.417Z,10.40
2023-12-23T06:40:47.093Z,10.40
2023-12-23T06:43:44.054Z,10.40
2023-12-23T06:46:00.170Z,10.40
2023-12-23T06:48:28.158Z,10.40
2023-12-23T06:50:56.883Z,10.40
2023-12-23T06:53:23.518Z,10.40
2023-12-23T06:55:50.138Z,10.40
2023-12-23T06:58:16.672Z,10.40
2023-12-23T07:00:43.224Z,10.40
2023-12-23T07:03:09.768Z,10.30
2023-12-23T07:05:36.340Z,10.40
2023-12-23T07:08:02.915Z,10.40
2023-12-23T07:10:29.453Z,10.40
2023-12-23T07:12:55.965Z,10.40
2023-12-23T07:15:22.930Z,10.30
2023-12-23T07:17:49.583Z,10.30
2023-12-23T07:20:16.310Z,10.40
2023-12-23T07:22:42.957Z,10.40
2023-12-23T07:25:09.478Z,10.40
2023-12-23T07:27:35.997Z,10.40
2023-12-23T07:30:02.513Z,10.40
2023-12-23T07:32:29.154Z,10.40
2023-12-23T07:34:55.737Z,10.40
2023-12-23T07:37:22.238Z,10.40
2023-12-23T07:39:48.751Z,10.40
2023-12-23T07:42:15.247Z,10.40
2023-12-23T07:44:41.763Z,10.40
2023-12-23T07:47:08.289Z,10.40
2023-12-23T07:49:37.515Z,10.40
2023-12-23T07:52:08.480Z,10.40
2023-12-23T07:54:34.996Z,10.40
2023-12-23T07:57:01.554Z,10.40
2023-12-23T07:59:28.112Z,10.40
2023-12-23T08:01:54.625Z,10.50
2023-12-23T08:04:21.148Z,10.40
2023-12-23T08:06:47.660Z,10.40
2023-12-23T08:09:14.176Z,10.50
2023-12-23T08:11:40.690Z,10.40
2023-12-23T08:14:07.257Z,10.40
2023-12-23T08:16:33.843Z,10.50
2023-12-23T08:19:00.407Z,10.50
2023-12-23T08:21:27.097Z,10.50
2023-12-23T08:23:53.606Z,10.50
2023-12-23T08:26:20.436Z,10.40
2023-12-23T08:28:47.306Z,10.40
2023-12-23T08:31:13.884Z,10.40
2023-12-23T08:33:40.562Z,10.40
2023-12-23T08:36:07.167Z,10.40
2023-12-23T08:38:33.711Z,10.40
2023-12-23T08:41:00.317Z,10.40
2023-12-23T08:43:26.876Z,10.40
2023-12-23T08:45:53.381Z,10.40
2023-12-23T08:48:19.923Z,10.40
2023-12-23T08:50:46.488Z,10.50
2023-12-23T08:53:13.021Z,10.40
2023-12-23T08:55:39.560Z,10.40
2023-12-23T08:58:06.075Z,10.40
2023-12-23T09:00:32.656Z,10.40
2023-12-23T09:02:59.257Z,10.40
2023-12-23T09:05:25.895Z,10.50
2023-12-23T09:07:52.811Z,10.50
2023-12-23T09:10:19.535Z,10.50
2023-12-23T09:12:46.050Z,10.50
2023-12-23T09:15:12.585Z,10.40
2023-12-23T09:17:39.254Z,10.50
2023-12-23T09:20:05.979Z,10.40
2023-12-23T09:22:33.331Z,10.40
2023-12-23T09:24:59.871Z,10.50
2023-12-23T09:27:26.387Z,10.50
2023-12-23T09:29:54.580Z,10.50
2023-12-23T09:32:21.520Z,10.50
2023-12-23T09:34:48.214Z,10.50
2023-12-23T09:37:14.753Z,10.50
2023-12-23T09:39:41.275Z,10.50
2023-12-23T09:42:07.796Z,10.50
2023-12-23T09:44:34.336Z,10.50
2023-12-23T09:47:00.876Z,10.50
2023-12-23T09:49:27.531Z,10.50
2023-12-23T09:51:55.421Z,10.40
2023-12-23T09:54:22.002Z,10.40
2023-12-23T09:56:48.545Z,10.50
2023-12-23T09:59:15.133Z,10.40
2023-12-23T10:01:41.692Z,10.50
2023-12-23T10:04:08.253Z,10.40
2023-12-23T10:06:34.832Z,10.40
2023-12-23T10:09:01.431Z,10.50
2023-12-23T10:11:28.054Z,10.40
2023-12-23T10:13:54.666Z,10.50
2023-12-23T10:16:21.215Z,10.50
2023-12-23T10:18:47.828Z,10.50
2023-12-23T10:21:14.353Z,10.50
2023-12-23T10:23:40.890Z,10.50
2023-12-23T10:26:07.431Z,10.40
2023-12-23T10:28:34.006Z,10.50
2023-12-23T10:31:00.582Z,10.50
2023-12-23T10:33:27.346Z,10.50
2023-12-23T10:35:53.929Z,10.40
2023-12-23T10:38:20.514Z,10.50
2023-12-23T10:40:47.055Z,10.50
2023-12-23T10:43:13.605Z,10.50
2023-12-23T10:45:40.120Z,10.50
2023-12-23T10:48:06.739Z,10.50
2023-12-23T10:50:33.327Z,10.60
2023-12-23T10:52:59.872Z,10.50
2023-12-23T10:55:26.408Z,10.50
2023-12-23T10:57:52.941Z,10.50
2023-12-23T11:00:19.452Z,10.40
2023-12-23T11:02:45.963Z,10.40
2023-12-23T11:05:12.506Z,10.50
2023-12-23T11:07:39.065Z,10.50
2023-12-23T11:10:05.572Z,10.50
2023-12-23T11:12:32.076Z,10.50
2023-12-23T11:14:58.638Z,10.50
2023-12-23T11:17:25.397Z,10.50
2023-12-23T11:19:52.232Z,10.50
2023-12-23T11:22:18.741Z,10.50
2023-12-23T11:24:45.252Z,10.50
2023-12-23T11:27:11.758Z,10.50
2023-12-23T11:29:38.570Z,10.60
2023-12-23T11:32:05.198Z,10.50
2023-12-23T11:34:31.762Z,10.50
2023-12-23T11:36:58.265Z,10.50
2023-12-23T11:39:24.774Z,10.50
2023-12-23T11:41:51.278Z,10.50
2023-12-23T11:44:17.837Z,10.50
2023-12-23T11:46:44.437Z,10.50
2023-12-23T11:49:11.062Z,10.50
2023-12-23T11:51:37.665Z,10.50
2023-12-23T11:54:04.233Z,10.50
2023-12-23T11:56:30.879Z,10.50
2023-12-23T11:58:57.533Z,10.50
2023-12-23T12:01:24.132Z,10.50
2023-12-23T12:03:50.722Z,10.50
2023-12-23T12:06:17.485Z,10.60
2023-12-23T12:08:44.086Z,10.50
2023-12-23T12:11:10.629Z,10.50
2023-12-23T12:13:37.203Z,10.50
2023-12-23T12:16:03.727Z,10.50
2023-12-23T12:18:30.331Z,10.50
2023-12-23T12:20:56.899Z,10.50
2023-12-23T12:23:23.509Z,10.50
2023-12-23T12:25:50.087Z,10.50
2023-12-23T12:28:16.653Z,10.50
2023-12-23T12:30:43.243Z,10.50
2023-12-23T12:33:09.971Z,10.50
2023-12-23T12:35:36.569Z,10.50
2023-12-23T12:38:11.421Z,10.60
2023-12-23T12:40:43.804Z,10.50
2023-12-23T12:43:10.391Z,10.60
2023-12-23T12:45:39.120Z,10.60
2023-12-23T12:48:07.065Z,10.50
2023-12-23T12:50:33.654Z,10.50
2023-12-23T12:53:00.252Z,10.60
2023-12-23T12:55:26.792Z,10.60
2023-12-23T12:57:53.311Z,10.60
2023-12-23T13:00:19.804Z,10.50
2023-12-23T13:02:46.348Z,10.60
2023-12-23T13:05:12.942Z,10.50
2023-12-23T13:07:39.515Z,10.50
2023-12-23T13:10:06.017Z,10.60
2023-12-23T13:12:32.544Z,10.50
2023-12-23T13:14:59.060Z,10.60
2023-12-23T13:17:25.831Z,10.60
2023-12-23T13:19:52.541Z,10.60
2023-12-23T13:22:19.091Z,10.60
2023-12-23T13:24:45.595Z,10.50
2023-12-23T13:27:12.118Z,10.60
2023-12-23T13:29:38.660Z,10.60
2023-12-23T13:32:05.315Z,10.50
2023-12-23T13:34:31.868Z,10.60
2023-12-23T13:36:58.429Z,10.60
2023-12-23T13:39:25.044Z,10.50
2023-12-23T13:41:51.568Z,10.60
2023-12-23T13:44:18.124Z,10.60
2023-12-23T13:46:44.688Z,10.60
2023-12-23T13:49:11.369Z,10.60
2023-12-23T13:51:37.994Z,10.60
2023-12-23T13:54:04.542Z,10.60
2023-12-23T13:56:31.076Z,10.50
2023-12-23T13:58:57.598Z,10.50
2023-12-23T14:01:24.172Z,10.50
2023-12-23T14:03:50.685Z,10.60
2023-12-23T14:06:17.231Z,10.50
2023-12-23T14:08:43.767Z,10.60
2023-12-23T14:11:10.321Z,10.50
2023-12-23T14:13:36.859Z,10.60
2023-12-23T14:16:03.409Z,10.60
2023-12-23T14:18:30.029Z,10.50
2023-12-23T14:20:56.615Z,10.60
2023-12-23T14:23:23.193Z,10.50
2023-12-23T14:25:49.785Z,10.60
2023-12-23T14:28:18.110Z,10.60
2023-12-23T14:30:45.386Z,10.50
2023-12-23T14:33:11.984Z,10.50
2023-12-23T14:35:38.644Z,10.50
2023-12-23T14:38:05.217Z,10.60
2023-12-23T14:40:31.759Z,10.60
2023-12-23T14:42:58.288Z,10.60
2023-12-23T14:45:24.843Z,10.60
2023-12-23T14:47:51.397Z,10.60
2023-12-23T14:50:18.415Z,10.60
2023-12-23T14:52:45.061Z,10.60
2023-12-23T14:55:11.633Z,10.60
2023-12-23T14:57:38.146Z,10.50
2023-12-23T15:00:04.682Z,10.60
2023-12-23T15:02:31.248Z,10.60
2023-12-23T15:04:57.857Z,10.60
2023-12-23T15:07:27.309Z,10.70
2023-12-23T15:09:55.152Z,10.60
2023-12-23T15:12:21.663Z,10.60
2023-12-23T15:14:48.168Z,10.60
2023-12-23T15:17:14.735Z,10.60
2023-12-23T15:19:41.297Z,10.70
2023-12-23T15:22:07.832Z,10.60
2023-12-23T15:24:36.271Z,10.60
2023-12-23T15:27:03.556Z,10.60
2023-12-23T15:29:30.143Z,10.60
2023-12-23T15:31:56.731Z,10.60
2023-12-23T15:34:23.296Z,10.60
2023-12-23T15:36:49.883Z,10.60
2023-12-23T15:39:16.408Z,10.70
2023-12-23T15:41:42.925Z,10.70
2023-12-23T15:44:09.469Z,10.70
2023-12-23T15:46:36.027Z,10.60
2023-12-23T15:49:02.568Z,10.70
2023-12-23T15:51:29.137Z,10.60
2023-12-23T15:53:55.773Z,10.60
2023-12-23T15:56:22.382Z,10.70
2023-12-23T15:58:48.978Z,10.70
2023-12-23T16:01:15.588Z,10.60
2023-12-23T16:03:42.186Z,10.70
2023-12-23T16:06:08.868Z,10.70
2023-12-23T16:08:35.525Z,10.70
2023-12-23T16:11:02.165Z,10.70
2023-12-23T16:13:28.707Z,10.70
2023-12-23T16:15:55.230Z,10.70
2023-12-23T16:18:21.876Z,10.60
2023-12-23T16:20:48.435Z,10.70
2023-12-23T16:23:14.968Z,10.70
2023-12-23T16:25:41.569Z,10.70
2023-12-23T16:28:08.089Z,10.70
2023-12-23T16:30:34.702Z,10.70
2023-12-23T16:33:01.337Z,10.70
2023-12-23T16:35:27.970Z,10.70
2023-12-23T16:37:54.610Z,10.70
2023-12-23T16:40:21.151Z,10.60
2023-12-23T16:42:47.665Z,10.70
2023-12-23T16:45:14.216Z,10.70
2023-12-23T16:47:40.788Z,10.70
2023-12-23T16:50:07.366Z,10.70
2023-12-23T16:52:33.928Z,10.70
2023-12-23T16:55:00.486Z,10.70
2023-12-23T16:57:27.002Z,10.70
2023-12-23T16:59:53.548Z,10.70
2023-12-23T17:02:22.694Z,10.70
2023-12-23T17:04:49.971Z,10.70
2023-12-23T17:07:16.686Z,10.70
2023-12-23T17:09:43.264Z,10.70
2023-12-23T17:12:09.790Z,10.70
2023-12-23T17:14:36.372Z,10.70
2023-12-23T17:17:04.653Z,10.70
2023-12-23T17:19:31.473Z,10.70
2023-12-23T17:21:58.079Z,10.60
2023-12-23T17:24:24.619Z,10.70
2023-12-23T17:26:51.142Z,10.70
2023-12-23T17:29:17.690Z,10.60
2023-12-23T17:31:44.217Z,10.60
2023-12-23T17:34:10.870Z,10.60
2023-12-23T17:36:37.505Z,10.70
2023-12-23T17:39:04.095Z,10.70
2023-12-23T17:41:30.678Z,10.70
2023-12-23T17:43:57.360Z,10.70
2023-12-23T17:46:23.890Z,10.70
2023-12-23T17:48:50.431Z,10.70
2023-12-23T17:51:16.961Z,10.70
2023-12-23T17:53:43.531Z,10.70
2023-12-23T17:56:10.153Z,10.70
2023-12-23T17:58:38.519Z,10.70
2023-12-23T18:01:06.413Z,10.60
2023-12-23T18:03:32.948Z,10.70
2023-12-23T18:05:59.525Z,10.60
2023-12-23T18:08:26.069Z,10.60
2023-12-23T18:10:52.637Z,10.60
2023-12-23T18:13:19.169Z,10.70
2023-12-23T18:15:45.700Z,10.70
2023-12-23T18:18:12.321Z,10.60
2023-12-23T18:20:39.001Z,10.60
2023-12-23T18:23:05.541Z,10.60
2023-12-23T18:25:32.086Z,10.60
2023-12-23T18:27:58.598Z,10.60
2023-12-23T18:30:25.171Z,10.60
2023-12-23T18:32:52.109Z,10.70
2023-12-23T18:35:19.008Z,10.70
2023-12-23T18:37:45.637Z,10.60
2023-12-23T18:40:12.151Z,10.70
2023-12-23T18:42:38.639Z,10.70
2023-12-23T18:45:05.197Z,10.70
2023-12-23T18:47:31.904Z,10.60
2023-12-23T18:49:58.550Z,10.70
2023-12-23T18:52:25.076Z,10.70
2023-12-23T18:54:51.609Z,10.70
2023-12-23T18:57:18.117Z,10.60
2023-12-23T18:59:44.649Z,10.60
2023-12-23T19:02:11.199Z,10.70
2023-12-23T19:04:37.804Z,10.60
2023-12-23T19:07:04.361Z,10.60
2023-12-23T19:09:30.884Z,10.60
2023-12-23T19:11:57.407Z,10.60
2023-12-23T19:14:23.993Z,10.60
2023-12-23T19:16:50.615Z,10.60
2023-12-23T19:19:17.282Z,10.70
2023-12-23T19:21:43.813Z,10.60
2023-12-23T19:24:10.365Z,10.60
2023-12-23T19:26:36.894Z,10.60
2023-12-23T19:29:03.511Z,10.60
2023-12-23T19:31:33.185Z,10.60
2023-12-23T19:34:00.382Z,10.70
2023-12-23T19:36:27.006Z,10.70
2023-12-23T19:38:53.543Z,10.70
2023-12-23T19:41:20.050Z,10.70
2023-12-23T19:43:46.605Z,10.60
2023-12-23T19:46:13.140Z,10.70
2023-12-23T19:48:39.796Z,10.70
2023-12-23T19:51:06.333Z,10.70
2023-12-23T19:53:32.871Z,10.60
2023-12-23T19:55:59.564Z,10.70
2023-12-23T19:58:26.190Z,10.70
2023-12-23T20:00:52.718Z,10.70
2023-12-23T20:03:19.309Z,10.60
2023-12-23T20:05:45.916Z,10.60
2023-12-23T20:08:12.495Z,10.70
2023-12-23T20:10:39.040Z,10.70
2023-12-23T20:13:05.581Z,10.80
2023-12-23T20:15:32.114Z,10.80
2023-12-23T20:17:58.754Z,10.80
2023-12-23T20:20:25.470Z,10.70
2023-12-23T20:22:52.275Z,10.70
2023-12-23T20:25:18.988Z,10.70
2023-12-23T20:27:45.520Z,10.70
2023-12-23T20:30:12.076Z,10.70
2023-12-23T20:32:38.763Z,10.70
2023-12-23T20:35:05.362Z,10.70
2023-12-23T20:37:32.002Z,10.70
2023-12-23T20:39:58.533Z,10.70
2023-12-23T20:42:25.069Z,10.70
2023-12-23T20:44:51.585Z,10.70
2023-12-23T20:47:18.179Z,10.70
2023-12-23T20:49:44.692Z,10.70
2023-12-23T20:52:11.208Z,10.70
2023-12-23T20:54:37.706Z,10.80
2023-12-23T20:57:04.231Z,10.70
2023-12-23T20:59:30.805Z,10.80
2023-12-23T21:01:57.394Z,10.70
2023-12-23T21:04:24.047Z,10.80
2023-12-23T21:06:50.586Z,10.70
2023-12-23T21:09:17.132Z,10.80
2023-12-23T21:11:43.654Z,10.70
2023-12-23T21:14:10.222Z,10.70
2023-12-23T21:16:36.758Z,10.70
2023-12-23T21:19:03.364Z,10.70
2023-12-23T21:21:29.909Z,10.70
2023-12-23T21:23:56.457Z,10.70
2023-12-23T21:26:23.230Z,10.70
2023-12-23T21:28:50.069Z,10.70
2023-12-23T21:31:16.618Z,10.80
2023-12-23T21:33:43.269Z,10.70
2023-12-23T21:36:09.856Z,10.70
2023-12-23T21:38:36.482Z,10.80
2023-12-23T21:41:03.067Z,10.70
2023-12-23T21:43:29.663Z,10.70
2023-12-23T21:45:56.173Z,10.70
2023-12-23T21:48:22.847Z,10.70
2023-12-23T21:50:49.467Z,10.80
2023-12-23T21:53:16.029Z,10.80
2023-12-23T21:55:42.540Z,10.80
2023-12-23T21:58:09.063Z,10.80
2023-12-23T22:00:35.661Z,10.80
2023-12-23T22:03:02.779Z,10.80
2023-12-23T22:05:29.469Z,10.80
2023-12-23T22:07:56.075Z,10.80
2023-12-23T22:10:22.586Z,10.70
2023-12-23T22:12:49.262Z,10.70
2023-12-23T22:15:15.915Z,10.80
2023-12-23T22:17:42.523Z,10.70
2023-12-23T22:20:09.111Z,10.70
2023-12-23T22:22:35.656Z,10.80
2023-12-23T22:25:02.153Z,10.80
2023-12-23T22:27:28.679Z,10.80
2023-12-23T22:29:55.213Z,10.70
2023-12-23T22:32:21.863Z,10.80
2023-12-23T22:34:48.432Z,10.70
2023-12-23T22:37:14.965Z,10.70
2023-12-23T22:39:41.476Z,10.70
2023-12-23T22:42:08.017Z,10.70
2023-12-23T22:44:34.589Z,10.70
2023-12-23T22:47:01.206Z,10.70
2023-12-23T22:49:27.767Z,10.70
2023-12-23T22:51:54.353Z,10.70
2023-12-23T22:54:20.868Z,10.80
2023-12-23T22:56:47.407Z,10.80
2023-12-23T22:59:13.942Z,10.80
2023-12-23T23:01:40.488Z,10.70
2023-12-23T23:04:06.990Z,10.70
2023-12-23T23:06:33.543Z,10.70
2023-12-23T23:09:00.052Z,10.70
2023-12-23T23:11:26.606Z,10.70
2023-12-23T23:13:53.206Z,10.70
2023-12-23T23:16:19.792Z,10.80
2023-12-23T23:18:46.495Z,10.80
2023-12-23T23:21:13.209Z,10.70
2023-12-23T23:23:39.774Z,10.70
2023-12-23T23:26:06.388Z,10.70
2023-12-23T23:28:32.910Z,10.70
2023-12-23T23:30:59.443Z,10.70
2023-12-23T23:33:26.020Z,10.70
2023-12-23T23:35:52.720Z,10.70
2023-12-23T23:38:19.310Z,10.70
2023-12-23T23:40:45.866Z,10.80
2023-12-23T23:43:12.384Z,10.70
2023-12-23T23:45:38.952Z,10.70
2023-12-23T23:48:05.619Z,10.80
2023-12-23T23:50:32.193Z,10.70
2023-12-23T23:52:58.730Z,10.80
2023-12-23T23:55:25.355Z,10.70
2023-12-23T23:57:51.871Z,10.80
